Easton, ME (04740)

1:28 AM EDT on August 22, 2014 (GMT -0400)
Micmac Environmental | Change Station
CLOSE
Current Station
Personal Weather Station
Location: Presque Isle, ME
Elevation: 540 ft
Nearby Weather Stations

Elev 540 ft 46.70 °N, 68.03 °W | Updated 4 seconds ago

Overcast
Overcast
60.5 °F
Feels Like 60.5 °F
N
0.0
Wind Variable Wind from South
Gusts 0.0 mph

Today
High -- | Low -- °F
--% Chance of Precip.
Yesterday
High -- | Low -- °F
Precip. -- in
5:38 AM 7:29 PM
Waning Crescent, 10% visible
Pressure 30.16 in
Visibility 10.0 miles
Clouds Scattered Clouds 3800 ft
Overcast 4400 ft
Dew Point 58 °F
Humidity 92%
Rainfall 0.00 in
Snow Depth Not available.
UV 5.0 out of 12
Pollen 7.30 out of 12
Air Quality Not available.
Flu Activity Not available.
METAR KPQI 220515Z AUTO 00000KT 10SM SCT038 OVC044 14/12 A3016 RMK AO1

More Conditions Fewer Conditions

Pressure 30.16 in
Visibility 10.0 miles
Clouds Scattered Clouds 3800 ft
Overcast 4400 ft
Dew Point 58 °F
Humidity 92%
Rainfall 0.00 in
Snow Depth Not available.
UV 5.0 out of 12
Pollen 7.30 out of 12
Air Quality Not available.
Flu Activity Not available.
METAR KPQI 220515Z AUTO 00000KT 10SM SCT038 OVC044 14/12 A3016 RMK AO1

More Conditions Fewer Conditions

10-Day Weather Forecast

Almanac

Astronomy

Aug. 22, 2014 Rise Set
Actual Time 5:38 AM EDT 7:29 PM EDT
Civil Twilight 5:06 AM EDT 8:01 PM EDT
Nautical Twilight 4:26 AM EDT 8:41 PM EDT
Astronomical Twilight 3:43 AM EDT 9:24 PM EDT
Moon 2:53 AM EDT 5:39 PM EDT
Length of Visible Light 14h 55m
Length of Day
13h 50m
Tomorrow will be 3m 6s shorter.
Waning Crescent, 10% of the Moon is Illuminated
Today
Waning Crescent
Aug 25
New
Sep 2
First Quarter
Sep 8
Full
Sep 15
Last Quarter

Today's Extremes

State Highs State Lows

Community

WunderPhotos

Upload Photos

1,746,131 photos uploaded!

Nearby

Air Quality

  Air Quality AQ Index Pollutant
Thursday Good
OZONE
Thursday Good
PM2.5
Friday Good
OZONE
Friday Good
PM2.5
Saturday Good
OZONE
Saturday Good
PM2.5

Snow Depth

Station Depth Elevation
No new snow has been reported.

Earthquake Activity

City Distance Mag. Time & Date
No recent earthquake activity has been reported nearby.
Minimum magnitude displayed is 2.5.

Coastal Water Temperatures

Place Temperature
No Stations Reporting

Nearby Weather Stations